sensor_id;sensor_type;location;lat;lon;timestamp;P1;durP1;ratioP1;P2;durP2;ratioP2
20956;SDS011;10637;47.970;7.830;2023-07-02T00:03:45;8.50;;;4.07;;
20956;SDS011;10637;47.970;7.830;2023-07-02T00:08:47;9.70;;;4.13;;
20956;SDS011;10637;47.970;7.830;2023-07-02T00:13:49;8.57;;;4.50;;
20956;SDS011;10637;47.970;7.830;2023-07-02T00:18:52;8.90;;;4.47;;
20956;SDS011;10637;47.970;7.830;2023-07-02T00:23:54;14.13;;;4.40;;
20956;SDS011;10637;47.970;7.830;2023-07-02T00:28:59;9.73;;;4.63;;
20956;SDS011;10637;47.970;7.830;2023-07-02T00:34:01;12.53;;;4.27;;
20956;SDS011;10637;47.970;7.830;2023-07-02T00:39:04;8.83;;;4.27;;
20956;SDS011;10637;47.970;7.830;2023-07-02T00:44:06;9.37;;;4.60;;
20956;SDS011;10637;47.970;7.830;2023-07-02T00:49:07;9.07;;;4.60;;
20956;SDS011;10637;47.970;7.830;2023-07-02T00:54:10;9.97;;;4.63;;
20956;SDS011;10637;47.970;7.830;2023-07-02T00:59:12;9.63;;;4.73;;
20956;SDS011;10637;47.970;7.830;2023-07-02T01:04:14;10.27;;;4.70;;
20956;SDS011;10637;47.970;7.830;2023-07-02T01:09:19;10.43;;;4.43;;
20956;SDS011;10637;47.970;7.830;2023-07-02T01:14:37;9.63;;;4.50;;
20956;SDS011;10637;47.970;7.830;2023-07-02T01:19:47;11.43;;;5.50;;
20956;SDS011;10637;47.970;7.830;2023-07-02T01:24:54;10.97;;;4.70;;
20956;SDS011;10637;47.970;7.830;2023-07-02T01:29:57;10.60;;;4.87;;
20956;SDS011;10637;47.970;7.830;2023-07-02T01:34:58;13.77;;;5.53;;
20956;SDS011;10637;47.970;7.830;2023-07-02T01:40:02;10.73;;;4.83;;
20956;SDS011;10637;47.970;7.830;2023-07-02T01:45:08;9.90;;;5.00;;
20956;SDS011;10637;47.970;7.830;2023-07-02T01:50:10;9.53;;;5.17;;
20956;SDS011;10637;47.970;7.830;2023-07-02T01:55:12;15.73;;;4.97;;
20956;SDS011;10637;47.970;7.830;2023-07-02T02:00:13;10.47;;;4.97;;
20956;SDS011;10637;47.970;7.830;2023-07-02T02:05:15;10.80;;;4.77;;
20956;SDS011;10637;47.970;7.830;2023-07-02T02:10:17;11.23;;;5.00;;
20956;SDS011;10637;47.970;7.830;2023-07-02T02:15:19;11.03;;;5.40;;
20956;SDS011;10637;47.970;7.830;2023-07-02T02:20:21;10.67;;;5.53;;
20956;SDS011;10637;47.970;7.830;2023-07-02T02:25:22;11.83;;;5.77;;
20956;SDS011;10637;47.970;7.830;2023-07-02T02:30:24;11.97;;;5.43;;
20956;SDS011;10637;47.970;7.830;2023-07-02T02:35:26;11.47;;;5.40;;
20956;SDS011;10637;47.970;7.830;2023-07-02T02:40:28;14.20;;;5.50;;
20956;SDS011;10637;47.970;7.830;2023-07-02T02:45:30;11.60;;;5.33;;
20956;SDS011;10637;47.970;7.830;2023-07-02T02:50:31;13.30;;;6.00;;
20956;SDS011;10637;47.970;7.830;2023-07-02T02:55:33;12.67;;;6.10;;
20956;SDS011;10637;47.970;7.830;2023-07-02T03:00:35;16.27;;;6.00;;
20956;SDS011;10637;47.970;7.830;2023-07-02T03:05:37;12.20;;;6.10;;
20956;SDS011;10637;47.970;7.830;2023-07-02T03:10:39;12.93;;;5.97;;
20956;SDS011;10637;47.970;7.830;2023-07-02T03:15:40;13.47;;;6.40;;
20956;SDS011;10637;47.970;7.830;2023-07-02T03:20:42;13.33;;;6.33;;
20956;SDS011;10637;47.970;7.830;2023-07-02T03:25:45;17.13;;;7.03;;
20956;SDS011;10637;47.970;7.830;2023-07-02T03:30:46;15.67;;;6.60;;
20956;SDS011;10637;47.970;7.830;2023-07-02T03:35:49;16.43;;;6.43;;
20956;SDS011;10637;47.970;7.830;2023-07-02T03:40:50;16.67;;;6.93;;
20956;SDS011;10637;47.970;7.830;2023-07-02T03:45:52;16.60;;;6.90;;
20956;SDS011;10637;47.970;7.830;2023-07-02T03:50:54;15.40;;;7.43;;
20956;SDS011;10637;47.970;7.830;2023-07-02T03:55:56;15.77;;;6.93;;
20956;SDS011;10637;47.970;7.830;2023-07-02T04:00:58;19.47;;;7.13;;
20956;SDS011;10637;47.970;7.830;2023-07-02T04:05:59;23.10;;;9.83;;
20956;SDS011;10637;47.970;7.830;2023-07-02T04:11:01;21.50;;;10.43;;
20956;SDS011;10637;47.970;7.830;2023-07-02T04:16:03;28.10;;;12.47;;
20956;SDS011;10637;47.970;7.830;2023-07-02T04:21:05;26.27;;;14.30;;
20956;SDS011;10637;47.970;7.830;2023-07-02T04:26:07;24.57;;;12.27;;
20956;SDS011;10637;47.970;7.830;2023-07-02T04:31:29;30.07;;;14.33;;
20956;SDS011;10637;47.970;7.830;2023-07-02T04:36:31;30.93;;;15.90;;
20956;SDS011;10637;47.970;7.830;2023-07-02T04:41:33;33.63;;;16.10;;
20956;SDS011;10637;47.970;7.830;2023-07-02T04:46:35;35.80;;;17.03;;
20956;SDS011;10637;47.970;7.830;2023-07-02T04:51:37;34.00;;;17.07;;
20956;SDS011;10637;47.970;7.830;2023-07-02T04:56:38;34.13;;;17.03;;
20956;SDS011;10637;47.970;7.830;2023-07-02T05:01:40;34.27;;;18.53;;
20956;SDS011;10637;47.970;7.830;2023-07-02T05:06:42;37.93;;;19.27;;
20956;SDS011;10637;47.970;7.830;2023-07-02T05:11:44;39.37;;;20.27;;
20956;SDS011;10637;47.970;7.830;2023-07-02T05:16:46;37.30;;;19.33;;
20956;SDS011;10637;47.970;7.830;2023-07-02T05:21:48;41.27;;;19.77;;
20956;SDS011;10637;47.970;7.830;2023-07-02T05:26:49;45.20;;;20.70;;
20956;SDS011;10637;47.970;7.830;2023-07-02T05:31:51;36.87;;;20.53;;
20956;SDS011;10637;47.970;7.830;2023-07-02T05:36:53;37.97;;;19.50;;
20956;SDS011;10637;47.970;7.830;2023-07-02T05:41:55;43.03;;;20.30;;
20956;SDS011;10637;47.970;7.830;2023-07-02T05:46:57;45.47;;;21.47;;
20956;SDS011;10637;47.970;7.830;2023-07-02T05:51:59;39.77;;;20.77;;
20956;SDS011;10637;47.970;7.830;2023-07-02T05:57:01;43.73;;;20.87;;
20956;SDS011;10637;47.970;7.830;2023-07-02T06:02:03;40.73;;;20.87;;
20956;SDS011;10637;47.970;7.830;2023-07-02T06:07:04;43.93;;;21.27;;
20956;SDS011;10637;47.970;7.830;2023-07-02T06:12:06;42.30;;;22.03;;
20956;SDS011;10637;47.970;7.830;2023-07-02T06:17:08;38.83;;;20.40;;
20956;SDS011;10637;47.970;7.830;2023-07-02T06:22:10;43.13;;;21.00;;
20956;SDS011;10637;47.970;7.830;2023-07-02T06:27:12;42.57;;;21.87;;
20956;SDS011;10637;47.970;7.830;2023-07-02T06:32:14;43.40;;;21.20;;
20956;SDS011;10637;47.970;7.830;2023-07-02T06:37:15;39.43;;;21.90;;
20956;SDS011;10637;47.970;7.830;2023-07-02T06:42:17;46.40;;;22.47;;
20956;SDS011;10637;47.970;7.830;2023-07-02T06:47:19;41.47;;;22.33;;
20956;SDS011;10637;47.970;7.830;2023-07-02T06:52:22;45.50;;;21.70;;
20956;SDS011;10637;47.970;7.830;2023-07-02T06:57:23;38.00;;;21.43;;
20956;SDS011;10637;47.970;7.830;2023-07-02T07:02:26;44.80;;;22.30;;
20956;SDS011;10637;47.970;7.830;2023-07-02T07:07:28;41.77;;;22.50;;
20956;SDS011;10637;47.970;7.830;2023-07-02T07:12:30;48.63;;;22.70;;
20956;SDS011;10637;47.970;7.830;2023-07-02T07:17:32;50.70;;;23.43;;
20956;SDS011;10637;47.970;7.830;2023-07-02T07:22:33;46.57;;;22.67;;
20956;SDS011;10637;47.970;7.830;2023-07-02T07:27:35;44.70;;;22.57;;
20956;SDS011;10637;47.970;7.830;2023-07-02T07:32:37;46.20;;;23.07;;
20956;SDS011;10637;47.970;7.830;2023-07-02T07:37:39;43.37;;;23.57;;
20956;SDS011;10637;47.970;7.830;2023-07-02T07:42:41;50.60;;;24.53;;
20956;SDS011;10637;47.970;7.830;2023-07-02T07:47:44;43.63;;;24.27;;
20956;SDS011;10637;47.970;7.830;2023-07-02T07:52:45;50.70;;;26.03;;
20956;SDS011;10637;47.970;7.830;2023-07-02T07:57:49;47.80;;;24.23;;
20956;SDS011;10637;47.970;7.830;2023-07-02T08:02:53;46.60;;;24.67;;
20956;SDS011;10637;47.970;7.830;2023-07-02T08:07:57;48.47;;;24.23;;
20956;SDS011;10637;47.970;7.830;2023-07-02T08:13:00;51.07;;;24.63;;
20956;SDS011;10637;47.970;7.830;2023-07-02T08:18:01;44.07;;;24.40;;
20956;SDS011;10637;47.970;7.830;2023-07-02T08:23:05;49.60;;;25.33;;
20956;SDS011;10637;47.970;7.830;2023-07-02T08:28:06;48.47;;;25.57;;
20956;SDS011;10637;47.970;7.830;2023-07-02T08:33:08;47.70;;;25.27;;
20956;SDS011;10637;47.970;7.830;2023-07-02T08:38:10;49.37;;;25.80;;
20956;SDS011;10637;47.970;7.830;2023-07-02T08:43:11;46.33;;;25.63;;
20956;SDS011;10637;47.970;7.830;2023-07-02T08:48:13;45.60;;;24.70;;
20956;SDS011;10637;47.970;7.830;2023-07-02T08:53:16;46.13;;;25.67;;
20956;SDS011;10637;47.970;7.830;2023-07-02T08:58:18;44.93;;;25.73;;
20956;SDS011;10637;47.970;7.830;2023-07-02T09:03:20;43.97;;;25.17;;
20956;SDS011;10637;47.970;7.830;2023-07-02T09:08:22;46.70;;;24.67;;
20956;SDS011;10637;47.970;7.830;2023-07-02T09:13:28;45.70;;;23.77;;
20956;SDS011;10637;47.970;7.830;2023-07-02T09:18:30;44.03;;;23.90;;
20956;SDS011;10637;47.970;7.830;2023-07-02T09:23:35;43.60;;;25.43;;
20956;SDS011;10637;47.970;7.830;2023-07-02T09:28:37;45.83;;;26.33;;
20956;SDS011;10637;47.970;7.830;2023-07-02T09:33:39;42.23;;;24.87;;
20956;SDS011;10637;47.970;7.830;2023-07-02T09:38:41;41.93;;;24.30;;
20956;SDS011;10637;47.970;7.830;2023-07-02T09:43:43;43.93;;;24.87;;
20956;SDS011;10637;47.970;7.830;2023-07-02T09:48:44;44.07;;;24.87;;
20956;SDS011;10637;47.970;7.830;2023-07-02T09:53:47;39.53;;;23.17;;
20956;SDS011;10637;47.970;7.830;2023-07-02T09:58:49;41.63;;;22.90;;
20956;SDS011;10637;47.970;7.830;2023-07-02T10:03:50;45.43;;;24.30;;
20956;SDS011;10637;47.970;7.830;2023-07-02T10:08:55;42.43;;;22.57;;
20956;SDS011;10637;47.970;7.830;2023-07-02T10:13:58;43.50;;;24.90;;
20956;SDS011;10637;47.970;7.830;2023-07-02T10:19:10;41.60;;;23.23;;
20956;SDS011;10637;47.970;7.830;2023-07-02T10:24:13;41.03;;;22.43;;
20956;SDS011;10637;47.970;7.830;2023-07-02T10:29:20;38.43;;;22.27;;
20956;SDS011;10637;47.970;7.830;2023-07-02T10:39:38;40.30;;;23.07;;
20956;SDS011;10637;47.970;7.830;2023-07-02T10:44:50;40.10;;;21.67;;
20956;SDS011;10637;47.970;7.830;2023-07-02T10:49:53;37.53;;;20.67;;
20956;SDS011;10637;47.970;7.830;2023-07-02T10:54:55;37.80;;;20.47;;
20956;SDS011;10637;47.970;7.830;2023-07-02T11:00:06;35.30;;;20.37;;
20956;SDS011;10637;47.970;7.830;2023-07-02T11:05:09;38.43;;;21.57;;
20956;SDS011;10637;47.970;7.830;2023-07-02T11:10:18;38.50;;;21.23;;
20956;SDS011;10637;47.970;7.830;2023-07-02T11:15:21;35.80;;;20.03;;
20956;SDS011;10637;47.970;7.830;2023-07-02T11:20:22;33.43;;;19.80;;
20956;SDS011;10637;47.970;7.830;2023-07-02T11:25:35;34.13;;;19.83;;
20956;SDS011;10637;47.970;7.830;2023-07-02T11:30:44;33.43;;;19.27;;
20956;SDS011;10637;47.970;7.830;2023-07-02T11:35:47;32.03;;;18.93;;
20956;SDS011;10637;47.970;7.830;2023-07-02T11:40:49;33.50;;;18.80;;
20956;SDS011;10637;47.970;7.830;2023-07-02T11:45:51;33.57;;;19.30;;
20956;SDS011;10637;47.970;7.830;2023-07-02T11:50:52;33.53;;;18.27;;
20956;SDS011;10637;47.970;7.830;2023-07-02T11:55:54;32.00;;;18.40;;
20956;SDS011;10637;47.970;7.830;2023-07-02T12:00:56;35.30;;;18.70;;
20956;SDS011;10637;47.970;7.830;2023-07-02T12:05:58;33.20;;;18.30;;
20956;SDS011;10637;47.970;7.830;2023-07-02T12:10:59;33.97;;;20.00;;
20956;SDS011;10637;47.970;7.830;2023-07-02T12:16:01;33.27;;;19.40;;
20956;SDS011;10637;47.970;7.830;2023-07-02T12:21:03;32.27;;;17.53;;
20956;SDS011;10637;47.970;7.830;2023-07-02T12:26:05;31.57;;;16.80;;
20956;SDS011;10637;47.970;7.830;2023-07-02T12:31:06;26.47;;;16.00;;
20956;SDS011;10637;47.970;7.830;2023-07-02T12:36:08;27.30;;;16.63;;
20956;SDS011;10637;47.970;7.830;2023-07-02T12:41:10;29.17;;;16.70;;
20956;SDS011;10637;47.970;7.830;2023-07-02T12:46:12;30.77;;;18.83;;
20956;SDS011;10637;47.970;7.830;2023-07-02T12:51:14;33.00;;;18.73;;
20956;SDS011;10637;47.970;7.830;2023-07-02T12:56:18;33.47;;;17.80;;
20956;SDS011;10637;47.970;7.830;2023-07-02T13:01:20;30.43;;;16.83;;
20956;SDS011;10637;47.970;7.830;2023-07-02T13:06:22;30.90;;;16.67;;
20956;SDS011;10637;47.970;7.830;2023-07-02T13:11:24;28.83;;;16.70;;
20956;SDS011;10637;47.970;7.830;2023-07-02T13:16:26;31.90;;;17.10;;
20956;SDS011;10637;47.970;7.830;2023-07-02T13:21:28;30.63;;;17.23;;
20956;SDS011;10637;47.970;7.830;2023-07-02T13:26:30;29.77;;;18.33;;
20956;SDS011;10637;47.970;7.830;2023-07-02T13:31:32;33.13;;;20.17;;
20956;SDS011;10637;47.970;7.830;2023-07-02T13:36:34;34.83;;;21.73;;
20956;SDS011;10637;47.970;7.830;2023-07-02T13:41:35;33.37;;;20.57;;
20956;SDS011;10637;47.970;7.830;2023-07-02T13:46:37;35.03;;;20.77;;
20956;SDS011;10637;47.970;7.830;2023-07-02T13:51:39;36.33;;;21.63;;
20956;SDS011;10637;47.970;7.830;2023-07-02T13:56:41;36.87;;;23.00;;
20956;SDS011;10637;47.970;7.830;2023-07-02T14:01:43;36.63;;;21.50;;
20956;SDS011;10637;47.970;7.830;2023-07-02T14:06:45;39.50;;;23.00;;
20956;SDS011;10637;47.970;7.830;2023-07-02T14:11:47;34.27;;;22.20;;
20956;SDS011;10637;47.970;7.830;2023-07-02T14:16:49;32.30;;;19.67;;
20956;SDS011;10637;47.970;7.830;2023-07-02T14:21:51;36.67;;;21.90;;
20956;SDS011;10637;47.970;7.830;2023-07-02T14:26:52;35.57;;;20.70;;
20956;SDS011;10637;47.970;7.830;2023-07-02T14:31:54;34.63;;;19.73;;
20956;SDS011;10637;47.970;7.830;2023-07-02T14:36:56;33.70;;;19.80;;
20956;SDS011;10637;47.970;7.830;2023-07-02T14:41:59;33.27;;;17.80;;
20956;SDS011;10637;47.970;7.830;2023-07-02T14:47:01;33.90;;;20.57;;
20956;SDS011;10637;47.970;7.830;2023-07-02T14:52:03;28.73;;;17.17;;
20956;SDS011;10637;47.970;7.830;2023-07-02T14:57:05;33.10;;;20.63;;
20956;SDS011;10637;47.970;7.830;2023-07-02T15:02:07;32.90;;;21.23;;
20956;SDS011;10637;47.970;7.830;2023-07-02T15:07:08;31.57;;;20.57;;
20956;SDS011;10637;47.970;7.830;2023-07-02T15:12:10;25.60;;;15.35;;
20956;SDS011;10637;47.970;7.830;2023-07-02T15:17:12;26.43;;;15.43;;
20956;SDS011;10637;47.970;7.830;2023-07-02T15:22:14;33.23;;;19.10;;
20956;SDS011;10637;47.970;7.830;2023-07-02T15:27:15;27.33;;;17.35;;
20956;SDS011;10637;47.970;7.830;2023-07-02T15:32:17;28.48;;;18.02;;
20956;SDS011;10637;47.970;7.830;2023-07-02T15:37:19;28.40;;;16.75;;
20956;SDS011;10637;47.970;7.830;2023-07-02T15:42:20;25.10;;;15.23;;
20956;SDS011;10637;47.970;7.830;2023-07-02T15:47:22;22.73;;;14.40;;
20956;SDS011;10637;47.970;7.830;2023-07-02T15:52:25;26.90;;;15.30;;
20956;SDS011;10637;47.970;7.830;2023-07-02T15:57:29;27.83;;;17.37;;
20956;SDS011;10637;47.970;7.830;2023-07-02T16:02:31;26.47;;;15.97;;
20956;SDS011;10637;47.970;7.830;2023-07-02T16:07:33;26.80;;;17.33;;
20956;SDS011;10637;47.970;7.830;2023-07-02T16:12:35;24.33;;;15.40;;
20956;SDS011;10637;47.970;7.830;2023-07-02T16:17:37;24.60;;;14.60;;
20956;SDS011;10637;47.970;7.830;2023-07-02T16:22:39;32.97;;;17.40;;
20956;SDS011;10637;47.970;7.830;2023-07-02T16:27:41;26.37;;;14.53;;
20956;SDS011;10637;47.970;7.830;2023-07-02T16:32:42;21.27;;;12.90;;
20956;SDS011;10637;47.970;7.830;2023-07-02T16:37:44;21.80;;;12.87;;
20956;SDS011;10637;47.970;7.830;2023-07-02T16:42:46;20.53;;;12.10;;
20956;SDS011;10637;47.970;7.830;2023-07-02T16:47:48;25.17;;;14.77;;
20956;SDS011;10637;47.970;7.830;2023-07-02T16:52:49;21.10;;;12.00;;
20956;SDS011;10637;47.970;7.830;2023-07-02T16:57:51;22.83;;;13.50;;
20956;SDS011;10637;47.970;7.830;2023-07-02T17:02:53;24.33;;;12.80;;
20956;SDS011;10637;47.970;7.830;2023-07-02T17:07:55;22.83;;;12.77;;
20956;SDS011;10637;47.970;7.830;2023-07-02T17:12:57;27.77;;;14.40;;
20956;SDS011;10637;47.970;7.830;2023-07-02T17:17:59;23.37;;;12.80;;
20956;SDS011;10637;47.970;7.830;2023-07-02T17:23:01;22.87;;;13.90;;
20956;SDS011;10637;47.970;7.830;2023-07-02T17:28:03;23.20;;;12.87;;
20956;SDS011;10637;47.970;7.830;2023-07-02T17:33:05;25.27;;;13.20;;
20956;SDS011;10637;47.970;7.830;2023-07-02T17:38:08;24.00;;;13.47;;
20956;SDS011;10637;47.970;7.830;2023-07-02T17:43:10;23.97;;;13.17;;
20956;SDS011;10637;47.970;7.830;2023-07-02T17:48:16;24.47;;;12.47;;
20956;SDS011;10637;47.970;7.830;2023-07-02T17:53:18;24.50;;;13.37;;
20956;SDS011;10637;47.970;7.830;2023-07-02T17:58:20;23.73;;;12.37;;
20956;SDS011;10637;47.970;7.830;2023-07-02T18:03:22;22.43;;;11.33;;
20956;SDS011;10637;47.970;7.830;2023-07-02T18:08:24;22.57;;;11.93;;
20956;SDS011;10637;47.970;7.830;2023-07-02T18:13:26;22.37;;;10.53;;
20956;SDS011;10637;47.970;7.830;2023-07-02T18:18:28;20.57;;;10.13;;
20956;SDS011;10637;47.970;7.830;2023-07-02T18:23:30;20.23;;;10.43;;
20956;SDS011;10637;47.970;7.830;2023-07-02T18:28:32;20.67;;;8.90;;
20956;SDS011;10637;47.970;7.830;2023-07-02T18:33:34;18.50;;;9.23;;
20956;SDS011;10637;47.970;7.830;2023-07-02T18:38:36;20.47;;;9.20;;
20956;SDS011;10637;47.970;7.830;2023-07-02T18:43:38;17.27;;;8.03;;
20956;SDS011;10637;47.970;7.830;2023-07-02T18:48:41;16.43;;;8.17;;
20956;SDS011;10637;47.970;7.830;2023-07-02T18:53:45;17.43;;;8.70;;
20956;SDS011;10637;47.970;7.830;2023-07-02T18:58:47;17.13;;;8.20;;
20956;SDS011;10637;47.970;7.830;2023-07-02T19:03:49;16.73;;;7.93;;
20956;SDS011;10637;47.970;7.830;2023-07-02T19:08:51;18.87;;;7.90;;
20956;SDS011;10637;47.970;7.830;2023-07-02T19:13:53;16.37;;;7.57;;
20956;SDS011;10637;47.970;7.830;2023-07-02T19:18:54;16.97;;;7.67;;
20956;SDS011;10637;47.970;7.830;2023-07-02T19:23:56;16.33;;;7.80;;
20956;SDS011;10637;47.970;7.830;2023-07-02T19:29:00;17.80;;;8.07;;
20956;SDS011;10637;47.970;7.830;2023-07-02T19:34:01;19.53;;;8.20;;
20956;SDS011;10637;47.970;7.830;2023-07-02T19:39:06;17.47;;;7.93;;
20956;SDS011;10637;47.970;7.830;2023-07-02T19:44:10;20.43;;;8.90;;
20956;SDS011;10637;47.970;7.830;2023-07-02T19:49:14;17.20;;;8.13;;
20956;SDS011;10637;47.970;7.830;2023-07-02T19:54:17;18.57;;;9.17;;
20956;SDS011;10637;47.970;7.830;2023-07-02T19:59:20;17.53;;;8.27;;
20956;SDS011;10637;47.970;7.830;2023-07-02T20:04:21;18.17;;;8.50;;
20956;SDS011;10637;47.970;7.830;2023-07-02T20:09:24;18.17;;;9.10;;
20956;SDS011;10637;47.970;7.830;2023-07-02T20:14:25;19.53;;;8.07;;
20956;SDS011;10637;47.970;7.830;2023-07-02T20:19:31;16.47;;;7.73;;
20956;SDS011;10637;47.970;7.830;2023-07-02T20:24:34;17.80;;;8.00;;
20956;SDS011;10637;47.970;7.830;2023-07-02T20:29:36;17.70;;;8.23;;
20956;SDS011;10637;47.970;7.830;2023-07-02T20:34:38;19.40;;;7.80;;
20956;SDS011;10637;47.970;7.830;2023-07-02T20:39:40;16.33;;;7.63;;
20956;SDS011;10637;47.970;7.830;2023-07-02T20:44:46;15.37;;;7.53;;
20956;SDS011;10637;47.970;7.830;2023-07-02T20:49:51;15.37;;;7.67;;
20956;SDS011;10637;47.970;7.830;2023-07-02T20:54:53;17.33;;;8.40;;
20956;SDS011;10637;47.970;7.830;2023-07-02T20:59:56;15.77;;;8.40;;
20956;SDS011;10637;47.970;7.830;2023-07-02T21:05:00;18.70;;;7.63;;
20956;SDS011;10637;47.970;7.830;2023-07-02T21:10:02;16.43;;;7.83;;
20956;SDS011;10637;47.970;7.830;2023-07-02T21:15:05;18.70;;;7.50;;
20956;SDS011;10637;47.970;7.830;2023-07-02T21:20:07;21.90;;;7.60;;
20956;SDS011;10637;47.970;7.830;2023-07-02T21:25:09;18.47;;;7.23;;
20956;SDS011;10637;47.970;7.830;2023-07-02T21:30:11;21.13;;;7.57;;
20956;SDS011;10637;47.970;7.830;2023-07-02T21:35:13;20.77;;;8.20;;
20956;SDS011;10637;47.970;7.830;2023-07-02T21:40:16;17.53;;;7.67;;
20956;SDS011;10637;47.970;7.830;2023-07-02T21:45:17;18.73;;;7.50;;
20956;SDS011;10637;47.970;7.830;2023-07-02T21:50:19;17.70;;;8.70;;
20956;SDS011;10637;47.970;7.830;2023-07-02T21:55:21;17.43;;;7.10;;
20956;SDS011;10637;47.970;7.830;2023-07-02T22:00:23;16.73;;;7.33;;
20956;SDS011;10637;47.970;7.830;2023-07-02T22:05:26;18.13;;;7.80;;
20956;SDS011;10637;47.970;7.830;2023-07-02T22:10:28;18.83;;;8.03;;
20956;SDS011;10637;47.970;7.830;2023-07-02T22:15:31;17.03;;;6.87;;
20956;SDS011;10637;47.970;7.830;2023-07-02T22:20:34;20.03;;;8.17;;
20956;SDS011;10637;47.970;7.830;2023-07-02T22:25:40;16.30;;;7.60;;
20956;SDS011;10637;47.970;7.830;2023-07-02T22:30:45;17.73;;;8.27;;
20956;SDS011;10637;47.970;7.830;2023-07-02T22:35:47;22.10;;;8.00;;
20956;SDS011;10637;47.970;7.830;2023-07-02T22:40:50;17.57;;;8.37;;
20956;SDS011;10637;47.970;7.830;2023-07-02T22:45:52;18.97;;;8.23;;
20956;SDS011;10637;47.970;7.830;2023-07-02T22:50:54;21.37;;;8.60;;
20956;SDS011;10637;47.970;7.830;2023-07-02T22:55:57;18.47;;;7.93;;
20956;SDS011;10637;47.970;7.830;2023-07-02T23:00:59;17.17;;;7.43;;
20956;SDS011;10637;47.970;7.830;2023-07-02T23:06:03;19.10;;;8.33;;
20956;SDS011;10637;47.970;7.830;2023-07-02T23:11:05;19.37;;;8.07;;
20956;SDS011;10637;47.970;7.830;2023-07-02T23:16:07;18.30;;;8.43;;
20956;SDS011;10637;47.970;7.830;2023-07-02T23:21:11;17.60;;;8.07;;
20956;SDS011;10637;47.970;7.830;2023-07-02T23:26:13;20.20;;;8.30;;
20956;SDS011;10637;47.970;7.830;2023-07-02T23:31:19;18.53;;;7.63;;
20956;SDS011;10637;47.970;7.830;2023-07-02T23:36:22;20.20;;;8.17;;
20956;SDS011;10637;47.970;7.830;2023-07-02T23:41:24;22.23;;;8.27;;
20956;SDS011;10637;47.970;7.830;2023-07-02T23:46:25;18.53;;;8.17;;
20956;SDS011;10637;47.970;7.830;2023-07-02T23:51:27;17.17;;;8.07;;
20956;SDS011;10637;47.970;7.830;2023-07-02T23:56:29;18.10;;;8.57;;
